الصفحة الرئيسية
METAR-TAF:

METAR-TAF

مطار :

سوفا, فيجي

دائرة عرض: 18-03S, خط طول: 178-34E, ارتفاع: 5 متر

مراقبة الطقس الحالي

تاريخ ووقت الإصدار 2ساعات و 2 دقيقة قبل الساعة 12:00UTC
رياح هادئة
درجة الحرارة 24°درجة مئوية
الرطوبة 94%
ضغط 1013 hPa
غيوم متفرقة على ارتفاع 2200 قدم
غيوم متفرقة على ارتفاع 4500 قدم

METAR: NFNA 101200Z 00000KT 40KM SCT022 SCT045 24/23 Q1013

زمن: 02:02 (14:02 UTC)

توقعات

تاريخ ووقت الإصدار 2ساعات و 43 دقيقة قبل الساعة 11:19UTC
التوقعات صالحة من10 الساعة 12 UTC إلى 11 الساعة 12 UTC
ريح 4 عقدة من الشرق/الجنوب الشرقي
الرؤية 10 كم أو أكثر
غيوم مفككة على ارتفاع 2000 قدم
غيوم مفككة على ارتفاع 4200 قدم
نظرية الاحتمالات 40% :
مؤقت
من 11 الساعة 00 UTC إلى 11 الساعة 06 UTC
الرؤية: 5000 متر
غيوم مفككة على ارتفاع 1500 قدم
غيوم قليلة على ارتفاع 1600 قدم, مزنة ركامية.
عاصفة رعدية, مطر

TAF: NFNA 101119Z 1012/1112 12004KT 9999 BKN020 BKN042 PROB40 TEMPO 1100/1106 5000 TSRA BKN015 FEW016CB

أرصاد الطقس والتوقعات من أكثر من 4000 مطار (تقارير الطقس للمطار METAR والتنبؤ بالطقس بالمطارTAF).

المحطات المتاحة هي النقط الصفراء والحمراء على الخريطة.

حرك المؤشر فوق النقطة لمعرفة اسم المحطة.

ثم انقر لمعرفة أرصاد وتوقعات الطقس.

لتغيير الخارطة: اضغط على الأزرار الخضراء مع رمز الصليب الأسود للتكبير. على الزر الأخضر مع شرطة للتصغير، أو على الأسهم الخضراء للخرائط المجاورة.


METAR-TAF: